LPPS/PXO METAR and TAF weather

Enter ICAO airport designator
Station Type Date Time Source
LPPS METAR 2021/03/08 14:30 UTC NOAA

LPPS 081430Z 02012KT 350V050 9999 SCT014 17/12 Q1022


Station Type Date Time Source
LPPS Decoded METAR 2021/03/08 14:30 UTC NOAA

Porto Santo, Portugal (LPPS) 33-04N 016-21W 82M
Mar 08, 2021 - 09:30 AM EST / 2021.03.08 1430 UTC
Wind: from the NNE (020 degrees) at 14 MPH (12 KT) (direction variable):0
Visibility: greater than 7 mile(s):0
Sky conditions: partly cloudy
Temperature: 62 F (17 C)
Dew Point: 53 F (12 C)
Relative Humidity: 72%
Pressure (altimeter): 30.18 in. Hg (1022 hPa)
ob: LPPS 081430Z 02012KT 350V050 9999 SCT014 17/12 Q1022
cycle: 14

Station Type Date Time Source
LPPS TAF 2021/03/08 12:18 UTC NOAA

TAF LPPS 081100Z 0812/0918 02010KT 9999 SCT015 SCT030
BECMG 0815/0818 03015KT SCT015 PROB40
TEMPO 0818/0912 BKN012

Example: see airport list